EWG149 LIMC-EDDH
Flight info
| Callsign | EWG149 |
|---|---|
| Flight time | 1h 28m |
| Altitude | 34000 |
| Route | PEPAG DCT ABESI N851 UTAVO DCT ROLSA/N0457F330 DCT LOKTA DCT TEDGO DCT HAREM DCT LOHRE DCT MASEK DCT ELNAT/N0455F340 P605 NOLGO NOLGO3P |
| Aircraft | A320/M-SDE3FGHIRWY/LB1 |
Departure
| Time | 2026-04-22 17:50 |
|---|---|
| Airport | Milan Malpensa International Airport (LIMC) |
Arrival
| Time | 2026-04-22 19:19 |
|---|---|
| Airport | Hamburg Helmut Schmidt Airport (EDDH) |
| Time | Latitude | Longitude | Altitude | Speed | Heading |
|---|---|---|---|---|---|
| 2026-04-22 17:13 | 45.62389 | 8.71717 | 753 ft | 0 kts | 349° |
| 2026-04-22 17:38 | 45.62375 | 8.71721 | 753 ft | 4 kts | 352° |
| 2026-04-22 17:39 | 45.62348 | 8.71724 | 750 ft | 4 kts | 2° |
| 2026-04-22 17:39 | 45.62322 | 8.71718 | 748 ft | 4 kts | 31° |
| 2026-04-22 17:39 | 45.62309 | 8.71692 | 753 ft | 0 kts | 79° |
| 2026-04-22 17:42 | 45.62310 | 8.71702 | 750 ft | 3 kts | 78° |
| 2026-04-22 17:43 | 45.62322 | 8.71798 | 752 ft | 14 kts | 79° |
| 2026-04-22 17:43 | 45.62341 | 8.71936 | 751 ft | 14 kts | 78° |
| 2026-04-22 17:43 | 45.62359 | 8.72070 | 751 ft | 14 kts | 79° |
| 2026-04-22 17:43 | 45.62363 | 8.72196 | 748 ft | 11 kts | 116° |
| 2026-04-22 17:44 | 45.62294 | 8.72242 | 751 ft | 12 kts | 167° |
| 2026-04-22 17:44 | 45.62226 | 8.72298 | 749 ft | 12 kts | 111° |
| 2026-04-22 17:44 | 45.62228 | 8.72367 | 750 ft | 0 kts | 79° |
| 2026-04-22 17:45 | 45.62230 | 8.72376 | 749 ft | 5 kts | 79° |
| 2026-04-22 17:45 | 45.62247 | 8.72504 | 746 ft | 16 kts | 79° |
| 2026-04-22 17:45 | 45.62270 | 8.72671 | 749 ft | 18 kts | 79° |
| 2026-04-22 17:45 | 45.62294 | 8.72849 | 752 ft | 18 kts | 79° |
| 2026-04-22 17:46 | 45.62281 | 8.73014 | 750 ft | 17 kts | 137° |
| 2026-04-22 17:46 | 45.62162 | 8.73059 | 751 ft | 19 kts | 168° |
| 2026-04-22 17:46 | 45.62030 | 8.73095 | 750 ft | 20 kts | 169° |
| 2026-04-22 17:46 | 45.61892 | 8.73134 | 748 ft | 21 kts | 169° |
| 2026-04-22 17:47 | 45.61752 | 8.73195 | 749 ft | 21 kts | 142° |
| 2026-04-22 17:47 | 45.61667 | 8.73362 | 753 ft | 21 kts | 124° |
| 2026-04-22 17:47 | 45.61623 | 8.73455 | 753 ft | 3 kts | 123° |
| 2026-04-22 17:47 | 45.61613 | 8.73477 | 752 ft | 2 kts | 123° |
| 2026-04-22 17:48 | 45.61612 | 8.73479 | 752 ft | 0 kts | 123° |
| 2026-04-22 17:48 | 45.61606 | 8.73493 | 752 ft | 8 kts | 122° |
| 2026-04-22 17:49 | 45.61585 | 8.73627 | 749 ft | 21 kts | 84° |
| 2026-04-22 17:49 | 45.61630 | 8.73728 | 745 ft | 6 kts | 355° |
| 2026-04-22 17:49 | 45.61633 | 8.73727 | 745 ft | 0 kts | 354° |
| 2026-04-22 17:49 | 45.61739 | 8.73705 | 746 ft | 49 kts | 349° |
| 2026-04-22 17:50 | 45.62311 | 8.73547 | 748 ft | 115 kts | 348° |
| 2026-04-22 17:50 | 45.63274 | 8.73280 | 741 ft | 165 kts | 349° |
| 2026-04-22 17:50 | 45.64453 | 8.73032 | 1207 ft | 173 kts | 356° |
| 2026-04-22 17:50 | 45.65637 | 8.73314 | 1826 ft | 177 kts | 34° |
| 2026-04-22 17:51 | 45.66417 | 8.74674 | 2285 ft | 186 kts | 73° |
| 2026-04-22 17:51 | 45.66823 | 8.76479 | 2727 ft | 200 kts | 63° |
| 2026-04-22 17:51 | 45.67766 | 8.78034 | 3140 ft | 214 kts | 43° |
| 2026-04-22 17:51 | 45.68929 | 8.79381 | 3777 ft | 215 kts | 39° |
| 2026-04-22 17:52 | 45.70122 | 8.80686 | 4434 ft | 216 kts | 38° |
| 2026-04-22 17:52 | 45.71315 | 8.82003 | 5159 ft | 218 kts | 38° |
| 2026-04-22 17:52 | 45.72375 | 8.83545 | 5860 ft | 220 kts | 63° |
| 2026-04-22 17:52 | 45.72666 | 8.85675 | 6477 ft | 228 kts | 98° |
| 2026-04-22 17:53 | 45.71990 | 8.87784 | 6904 ft | 242 kts | 125° |
| 2026-04-22 17:53 | 45.70991 | 8.89766 | 7569 ft | 248 kts | 125° |
| 2026-04-22 17:53 | 45.69955 | 8.91761 | 8346 ft | 250 kts | 125° |
| 2026-04-22 17:53 | 45.68911 | 8.93765 | 9125 ft | 253 kts | 125° |
| 2026-04-22 17:54 | 45.67859 | 8.95792 | 9908 ft | 255 kts | 124° |
| 2026-04-22 17:54 | 45.66803 | 8.97843 | 10621 ft | 258 kts | 124° |
| 2026-04-22 17:54 | 45.65741 | 8.99932 | 11314 ft | 261 kts | 121° |
| 2026-04-22 17:54 | 45.64936 | 9.02254 | 11976 ft | 262 kts | 105° |
| 2026-04-22 17:55 | 45.64652 | 9.03951 | 12262 ft | 271 kts | 95° |
| 2026-04-22 17:55 | 45.64621 | 9.07729 | 12533 ft | 300 kts | 86° |
| 2026-04-22 17:55 | 45.64657 | 9.10824 | 12701 ft | 323 kts | 87° |
| 2026-04-22 17:55 | 45.64685 | 9.14140 | 12840 ft | 345 kts | 88° |
| 2026-04-22 17:56 | 45.64708 | 9.17625 | 13013 ft | 364 kts | 88° |
| 2026-04-22 17:56 | 45.64728 | 9.21286 | 13518 ft | 372 kts | 88° |
| 2026-04-22 17:56 | 45.64745 | 9.25012 | 14120 ft | 376 kts | 88° |
| 2026-04-22 17:56 | 45.64754 | 9.27545 | 14506 ft | 379 kts | 88° |
| 2026-04-22 17:57 | 45.64764 | 9.31329 | 15094 ft | 382 kts | 88° |
| 2026-04-22 17:57 | 45.64774 | 9.35088 | 15666 ft | 385 kts | 88° |
| 2026-04-22 17:57 | 45.64782 | 9.38981 | 16241 ft | 388 kts | 88° |
| 2026-04-22 17:57 | 45.64790 | 9.42802 | 16806 ft | 391 kts | 88° |
| 2026-04-22 17:58 | 45.64800 | 9.46706 | 17367 ft | 394 kts | 88° |
| 2026-04-22 17:58 | 45.64813 | 9.50633 | 17918 ft | 396 kts | 87° |
| 2026-04-22 17:58 | 45.64824 | 9.54590 | 18458 ft | 399 kts | 87° |
| 2026-04-22 17:58 | 45.64833 | 9.58573 | 18919 ft | 403 kts | 87° |
| 2026-04-22 17:59 | 45.64901 | 9.62581 | 19331 ft | 404 kts | 80° |
| 2026-04-22 17:59 | 45.65753 | 9.66361 | 19718 ft | 400 kts | 57° |
| 2026-04-22 17:59 | 45.67573 | 9.69306 | 20118 ft | 395 kts | 33° |
| 2026-04-22 17:59 | 45.70046 | 9.70931 | 20521 ft | 392 kts | 10° |
| 2026-04-22 18:00 | 45.72749 | 9.70970 | 20953 ft | 391 kts | 347° |
| 2026-04-22 18:00 | 45.75228 | 9.69426 | 21363 ft | 393 kts | 324° |
| 2026-04-22 18:00 | 45.77075 | 9.66545 | 21769 ft | 400 kts | 302° |
| 2026-04-22 18:00 | 45.78005 | 9.62756 | 22151 ft | 409 kts | 282° |
| 2026-04-22 18:01 | 45.78398 | 9.58699 | 22598 ft | 412 kts | 280° |
| 2026-04-22 18:01 | 45.78779 | 9.54620 | 23029 ft | 414 kts | 281° |
| 2026-04-22 18:01 | 45.79162 | 9.50525 | 23446 ft | 416 kts | 281° |
| 2026-04-22 18:01 | 45.79901 | 9.46545 | 23801 ft | 413 kts | 294° |
| 2026-04-22 18:02 | 45.80966 | 9.42734 | 24238 ft | 411 kts | 294° |
| 2026-04-22 18:02 | 45.82203 | 9.39069 | 24668 ft | 406 kts | 305° |
| 2026-04-22 18:02 | 45.83841 | 9.35789 | 25037 ft | 405 kts | 308° |
| 2026-04-22 18:02 | 45.85508 | 9.32520 | 25429 ft | 405 kts | 308° |
| 2026-04-22 18:03 | 45.87176 | 9.29265 | 25789 ft | 405 kts | 308° |
| 2026-04-22 18:03 | 45.88844 | 9.26006 | 26110 ft | 406 kts | 308° |
| 2026-04-22 18:03 | 45.90515 | 9.22734 | 26477 ft | 407 kts | 307° |
| 2026-04-22 18:03 | 45.92180 | 9.19455 | 26828 ft | 407 kts | 307° |
| 2026-04-22 18:04 | 45.93844 | 9.16158 | 27179 ft | 408 kts | 307° |
| 2026-04-22 18:04 | 45.95576 | 9.12935 | 27523 ft | 408 kts | 313° |
| 2026-04-22 18:04 | 45.97668 | 9.10196 | 27903 ft | 406 kts | 322° |
| 2026-04-22 18:04 | 46.00078 | 9.08085 | 28344 ft | 406 kts | 332° |
| 2026-04-22 18:05 | 46.02724 | 9.06664 | 28810 ft | 409 kts | 342° |
| 2026-04-22 18:05 | 46.05510 | 9.05961 | 29054 ft | 414 kts | 349° |
| 2026-04-22 18:05 | 46.08374 | 9.05500 | 29392 ft | 414 kts | 349° |
| 2026-04-22 18:05 | 46.11233 | 9.05040 | 29791 ft | 413 kts | 349° |
| 2026-04-22 18:06 | 46.14085 | 9.04582 | 30216 ft | 411 kts | 349° |
| 2026-04-22 18:06 | 46.16929 | 9.04127 | 30598 ft | 410 kts | 349° |
| 2026-04-22 18:06 | 46.19766 | 9.03712 | 30955 ft | 409 kts | 350° |
| 2026-04-22 18:06 | 46.22598 | 9.03335 | 31303 ft | 409 kts | 351° |
| 2026-04-22 18:07 | 46.25438 | 9.02975 | 31567 ft | 410 kts | 351° |
| 2026-04-22 18:07 | 46.28281 | 9.02619 | 31870 ft | 410 kts | 351° |
| 2026-04-22 18:07 | 46.31115 | 9.02253 | 32181 ft | 409 kts | 351° |
| 2026-04-22 18:07 | 46.33944 | 9.01879 | 32466 ft | 408 kts | 351° |
| 2026-04-22 18:08 | 46.36767 | 9.01502 | 32812 ft | 407 kts | 351° |
| 2026-04-22 18:08 | 46.39588 | 9.01124 | 33118 ft | 407 kts | 351° |
| 2026-04-22 18:08 | 46.42403 | 9.00745 | 33440 ft | 407 kts | 351° |
| 2026-04-22 18:08 | 46.45229 | 9.00358 | 33779 ft | 407 kts | 351° |
| 2026-04-22 18:09 | 46.48047 | 8.99974 | 34134 ft | 406 kts | 351° |
| 2026-04-22 18:09 | 46.50861 | 8.99594 | 34435 ft | 405 kts | 351° |
| 2026-04-22 18:09 | 46.53665 | 8.99220 | 34700 ft | 405 kts | 351° |
| 2026-04-22 18:09 | 46.56469 | 8.98846 | 34929 ft | 405 kts | 351° |
| 2026-04-22 18:10 | 46.59281 | 8.98468 | 35137 ft | 406 kts | 351° |
| 2026-04-22 18:10 | 46.62101 | 8.98087 | 35332 ft | 407 kts | 351° |
| 2026-04-22 18:10 | 46.64926 | 8.97706 | 35480 ft | 409 kts | 352° |
| 2026-04-22 18:10 | 46.67765 | 8.97320 | 35632 ft | 410 kts | 352° |
| 2026-04-22 18:11 | 46.70609 | 8.96934 | 35827 ft | 410 kts | 352° |
| 2026-04-22 18:11 | 46.73446 | 8.96550 | 36031 ft | 410 kts | 352° |
| 2026-04-22 18:11 | 46.76293 | 8.96161 | 36140 ft | 411 kts | 352° |
| 2026-04-22 18:12 | 46.82000 | 8.95381 | 36179 ft | 418 kts | 352° |
| 2026-04-22 18:12 | 46.86871 | 8.94708 | 36175 ft | 422 kts | 352° |
| 2026-04-22 18:13 | 46.93676 | 8.93775 | 36178 ft | 423 kts | 352° |
| 2026-04-22 18:13 | 46.99530 | 8.92981 | 36187 ft | 422 kts | 352° |
| 2026-04-22 18:14 | 47.05380 | 8.92176 | 36203 ft | 422 kts | 352° |
| 2026-04-22 18:14 | 47.11236 | 8.91377 | 36203 ft | 423 kts | 352° |
| 2026-04-22 18:15 | 47.17100 | 8.90563 | 36208 ft | 424 kts | 352° |
| 2026-04-22 18:15 | 47.22975 | 8.89738 | 36219 ft | 424 kts | 352° |
| 2026-04-22 18:16 | 47.28838 | 8.89225 | 36225 ft | 427 kts | 1° |
| 2026-04-22 18:16 | 47.34709 | 8.90821 | 36224 ft | 431 kts | 9° |
| 2026-04-22 18:17 | 47.40564 | 8.92756 | 36231 ft | 431 kts | 9° |
| 2026-04-22 18:17 | 47.46426 | 8.94672 | 36244 ft | 431 kts | 9° |
| 2026-04-22 18:18 | 47.52295 | 8.96615 | 36244 ft | 432 kts | 10° |
| 2026-04-22 18:18 | 47.58123 | 8.98566 | 36245 ft | 432 kts | 10° |
| 2026-04-22 18:19 | 47.63992 | 9.00519 | 36250 ft | 432 kts | 10° |
| 2026-04-22 18:19 | 47.69869 | 9.02476 | 36259 ft | 433 kts | 10° |
| 2026-04-22 18:20 | 47.75744 | 9.04444 | 36256 ft | 433 kts | 10° |
| 2026-04-22 18:20 | 47.81623 | 9.06422 | 36259 ft | 433 kts | 11° |
| 2026-04-22 18:21 | 47.87493 | 9.08403 | 36262 ft | 432 kts | 11° |
| 2026-04-22 18:21 | 47.93364 | 9.10376 | 36258 ft | 432 kts | 11° |
| 2026-04-22 18:22 | 47.99236 | 9.12361 | 36258 ft | 433 kts | 11° |
| 2026-04-22 18:22 | 48.05118 | 9.14351 | 36259 ft | 434 kts | 11° |
| 2026-04-22 18:23 | 48.11003 | 9.16344 | 36268 ft | 434 kts | 11° |
| 2026-04-22 18:23 | 48.16905 | 9.18289 | 36266 ft | 433 kts | 7° |
| 2026-04-22 18:24 | 48.25874 | 9.19813 | 36265 ft | 433 kts | 5° |
| 2026-04-22 18:25 | 48.34860 | 9.21338 | 36262 ft | 433 kts | 6° |
| 2026-04-22 18:25 | 48.40854 | 9.22354 | 36261 ft | 433 kts | 6° |
| 2026-04-22 18:26 | 48.49800 | 9.23869 | 36269 ft | 433 kts | 6° |
| 2026-04-22 18:26 | 48.55780 | 9.24890 | 36261 ft | 432 kts | 6° |
| 2026-04-22 18:27 | 48.61761 | 9.25897 | 36268 ft | 432 kts | 6° |
| 2026-04-22 18:27 | 48.67751 | 9.26857 | 36260 ft | 432 kts | 5° |
| 2026-04-22 18:28 | 48.73735 | 9.27757 | 36257 ft | 432 kts | 5° |
| 2026-04-22 18:28 | 48.79720 | 9.28656 | 36256 ft | 432 kts | 5° |
| 2026-04-22 18:29 | 48.85713 | 9.29562 | 36262 ft | 432 kts | 5° |
| 2026-04-22 18:29 | 48.91699 | 9.30558 | 36258 ft | 433 kts | 6° |
| 2026-04-22 18:30 | 49.00664 | 9.32252 | 36264 ft | 433 kts | 7° |
| 2026-04-22 18:31 | 49.06644 | 9.33358 | 36276 ft | 433 kts | 7° |
| 2026-04-22 18:31 | 49.12632 | 9.34436 | 36280 ft | 433 kts | 7° |
| 2026-04-22 18:32 | 49.18622 | 9.35516 | 36280 ft | 433 kts | 7° |
| 2026-04-22 18:32 | 49.24572 | 9.36606 | 36283 ft | 433 kts | 7° |
| 2026-04-22 18:33 | 49.30596 | 9.37724 | 36280 ft | 434 kts | 7° |
| 2026-04-22 18:33 | 49.36589 | 9.38839 | 36264 ft | 434 kts | 7° |
| 2026-04-22 18:34 | 49.42546 | 9.39932 | 36284 ft | 434 kts | 7° |
| 2026-04-22 18:34 | 49.48576 | 9.41045 | 36292 ft | 433 kts | 7° |
| 2026-04-22 18:35 | 49.54527 | 9.42148 | 36300 ft | 433 kts | 7° |
| 2026-04-22 18:35 | 49.60511 | 9.43267 | 36300 ft | 433 kts | 7° |
| 2026-04-22 18:36 | 49.66496 | 9.44384 | 36291 ft | 433 kts | 7° |
| 2026-04-22 18:36 | 49.72487 | 9.45510 | 36294 ft | 434 kts | 7° |
| 2026-04-22 18:37 | 49.78486 | 9.46632 | 36303 ft | 434 kts | 7° |
| 2026-04-22 18:37 | 49.83521 | 9.47575 | 36306 ft | 435 kts | 8° |
| 2026-04-22 18:38 | 49.90500 | 9.48882 | 36311 ft | 435 kts | 8° |
| 2026-04-22 18:38 | 49.96513 | 9.50007 | 36309 ft | 435 kts | 8° |
| 2026-04-22 18:39 | 50.05531 | 9.51720 | 36304 ft | 435 kts | 8° |
| 2026-04-22 18:39 | 50.11556 | 9.52871 | 36306 ft | 436 kts | 8° |
| 2026-04-22 18:40 | 50.16566 | 9.53830 | 36312 ft | 436 kts | 8° |
| 2026-04-22 18:40 | 50.23585 | 9.55164 | 36316 ft | 437 kts | 8° |
| 2026-04-22 18:41 | 50.29625 | 9.56317 | 36311 ft | 437 kts | 8° |
| 2026-04-22 18:41 | 50.34643 | 9.57277 | 36319 ft | 437 kts | 8° |
| 2026-04-22 18:42 | 50.40690 | 9.58440 | 36324 ft | 438 kts | 8° |
| 2026-04-22 18:42 | 50.46738 | 9.59604 | 36329 ft | 438 kts | 8° |
| 2026-04-22 18:43 | 50.52784 | 9.60775 | 36326 ft | 438 kts | 9° |
| 2026-04-22 18:43 | 50.58842 | 9.61947 | 36332 ft | 438 kts | 9° |
| 2026-04-22 18:44 | 50.64899 | 9.63122 | 36329 ft | 439 kts | 9° |
| 2026-04-22 18:44 | 50.70953 | 9.64306 | 36338 ft | 439 kts | 9° |
| 2026-04-22 18:45 | 50.77021 | 9.65480 | 36341 ft | 438 kts | 9° |
| 2026-04-22 18:45 | 50.83039 | 9.66660 | 36343 ft | 439 kts | 9° |
| 2026-04-22 18:46 | 50.89101 | 9.67859 | 36347 ft | 438 kts | 9° |
| 2026-04-22 18:46 | 50.95168 | 9.69061 | 36342 ft | 439 kts | 9° |
| 2026-04-22 18:47 | 51.01235 | 9.70255 | 36344 ft | 439 kts | 9° |
| 2026-04-22 18:47 | 51.07299 | 9.71454 | 36344 ft | 439 kts | 9° |
| 2026-04-22 18:48 | 51.13363 | 9.72660 | 36345 ft | 439 kts | 9° |
| 2026-04-22 18:48 | 51.19398 | 9.73858 | 36338 ft | 440 kts | 9° |
| 2026-04-22 18:49 | 51.25471 | 9.75079 | 36344 ft | 440 kts | 9° |
| 2026-04-22 18:49 | 51.31551 | 9.76293 | 36351 ft | 440 kts | 9° |
| 2026-04-22 18:50 | 51.37632 | 9.77515 | 36353 ft | 440 kts | 9° |
| 2026-04-22 18:50 | 51.43714 | 9.78734 | 36340 ft | 441 kts | 10° |
| 2026-04-22 18:51 | 51.49804 | 9.79959 | 36349 ft | 441 kts | 10° |
| 2026-04-22 18:51 | 51.55901 | 9.81195 | 36349 ft | 442 kts | 10° |
| 2026-04-22 18:52 | 51.62003 | 9.82422 | 36358 ft | 442 kts | 10° |
| 2026-04-22 18:52 | 51.68078 | 9.83658 | 36353 ft | 443 kts | 10° |
| 2026-04-22 18:53 | 51.74193 | 9.84906 | 36356 ft | 443 kts | 10° |
| 2026-04-22 18:53 | 51.80323 | 9.86155 | 36361 ft | 444 kts | 10° |
| 2026-04-22 18:54 | 51.86452 | 9.87421 | 36367 ft | 444 kts | 10° |
| 2026-04-22 18:54 | 51.92584 | 9.88673 | 36351 ft | 445 kts | 11° |
| 2026-04-22 18:55 | 51.98726 | 9.89931 | 36346 ft | 445 kts | 11° |
| 2026-04-22 18:55 | 52.04877 | 9.91205 | 36356 ft | 446 kts | 11° |
| 2026-04-22 18:56 | 52.11038 | 9.92490 | 36274 ft | 447 kts | 11° |
| 2026-04-22 18:56 | 52.14142 | 9.93140 | 35582 ft | 450 kts | 12° |
| 2026-04-22 18:56 | 52.17251 | 9.93791 | 34855 ft | 451 kts | 12° |
| 2026-04-22 18:57 | 52.20365 | 9.94437 | 34105 ft | 451 kts | 13° |
| 2026-04-22 18:57 | 52.23478 | 9.95082 | 33285 ft | 451 kts | 13° |
| 2026-04-22 18:57 | 52.26591 | 9.95730 | 32484 ft | 451 kts | 12° |
| 2026-04-22 18:57 | 52.29708 | 9.96380 | 31708 ft | 451 kts | 12° |
| 2026-04-22 18:58 | 52.32776 | 9.97021 | 30968 ft | 450 kts | 12° |
| 2026-04-22 18:58 | 52.35884 | 9.97672 | 30171 ft | 450 kts | 12° |
| 2026-04-22 18:58 | 52.38983 | 9.98321 | 29309 ft | 448 kts | 12° |
| 2026-04-22 18:58 | 52.42075 | 9.98969 | 28454 ft | 446 kts | 11° |
| 2026-04-22 18:59 | 52.45151 | 9.99612 | 27637 ft | 444 kts | 11° |
| 2026-04-22 18:59 | 52.48210 | 10.00257 | 26849 ft | 442 kts | 11° |
| 2026-04-22 18:59 | 52.51254 | 10.00900 | 26080 ft | 440 kts | 11° |
| 2026-04-22 18:59 | 52.54289 | 10.01545 | 25329 ft | 438 kts | 11° |
| 2026-04-22 19:00 | 52.57244 | 10.02595 | 24604 ft | 432 kts | 18° |
| 2026-04-22 19:00 | 52.60137 | 10.03899 | 23931 ft | 430 kts | 18° |
| 2026-04-22 19:00 | 52.62998 | 10.05184 | 23368 ft | 422 kts | 17° |
| 2026-04-22 19:00 | 52.65803 | 10.06439 | 22856 ft | 414 kts | 17° |
| 2026-04-22 19:01 | 52.68566 | 10.07671 | 22332 ft | 408 kts | 17° |
| 2026-04-22 19:01 | 52.71287 | 10.08887 | 21795 ft | 402 kts | 17° |
| 2026-04-22 19:01 | 52.73994 | 10.10010 | 21296 ft | 405 kts | 12° |
| 2026-04-22 19:01 | 52.76872 | 10.10798 | 20772 ft | 432 kts | 11° |
| 2026-04-22 19:02 | 52.79833 | 10.11551 | 20273 ft | 435 kts | 10° |
| 2026-04-22 19:02 | 52.82797 | 10.12260 | 19769 ft | 426 kts | 9° |
| 2026-04-22 19:02 | 52.85686 | 10.12936 | 19272 ft | 408 kts | 9° |
| 2026-04-22 19:02 | 52.88421 | 10.13577 | 18796 ft | 389 kts | 9° |
| 2026-04-22 19:03 | 52.91087 | 10.14213 | 18366 ft | 383 kts | 9° |
| 2026-04-22 19:03 | 52.93693 | 10.14839 | 17921 ft | 376 kts | 9° |
| 2026-04-22 19:03 | 52.96264 | 10.15465 | 17416 ft | 371 kts | 9° |
| 2026-04-22 19:03 | 52.98806 | 10.16094 | 16909 ft | 368 kts | 10° |
| 2026-04-22 19:04 | 53.01330 | 10.16718 | 16411 ft | 365 kts | 10° |
| 2026-04-22 19:04 | 53.03832 | 10.17339 | 15935 ft | 362 kts | 10° |
| 2026-04-22 19:04 | 53.06307 | 10.17955 | 15457 ft | 359 kts | 10° |
| 2026-04-22 19:04 | 53.08766 | 10.18565 | 14996 ft | 356 kts | 9° |
| 2026-04-22 19:05 | 53.11208 | 10.19169 | 14535 ft | 353 kts | 9° |
| 2026-04-22 19:05 | 53.13595 | 10.19758 | 14076 ft | 350 kts | 9° |
| 2026-04-22 19:05 | 53.15994 | 10.20350 | 13563 ft | 347 kts | 9° |
| 2026-04-22 19:05 | 53.18370 | 10.20936 | 13049 ft | 344 kts | 9° |
| 2026-04-22 19:06 | 53.20716 | 10.21516 | 12724 ft | 335 kts | 9° |
| 2026-04-22 19:06 | 53.22977 | 10.22078 | 12595 ft | 322 kts | 9° |
| 2026-04-22 19:06 | 53.25149 | 10.22619 | 12445 ft | 310 kts | 9° |
| 2026-04-22 19:07 | 53.29356 | 10.23670 | 11756 ft | 303 kts | 9° |
| 2026-04-22 19:07 | 53.31427 | 10.24185 | 11475 ft | 297 kts | 9° |
| 2026-04-22 19:07 | 53.33440 | 10.24685 | 11250 ft | 290 kts | 9° |
| 2026-04-22 19:07 | 53.35424 | 10.25182 | 10913 ft | 287 kts | 9° |
| 2026-04-22 19:08 | 53.37389 | 10.25675 | 10558 ft | 285 kts | 9° |
| 2026-04-22 19:08 | 53.39346 | 10.26165 | 10198 ft | 283 kts | 9° |
| 2026-04-22 19:08 | 53.41289 | 10.26650 | 9804 ft | 281 kts | 8° |
| 2026-04-22 19:08 | 53.43193 | 10.27125 | 9621 ft | 272 kts | 8° |
| 2026-04-22 19:09 | 53.45053 | 10.27593 | 9289 ft | 269 kts | 8° |
| 2026-04-22 19:09 | 53.46895 | 10.28060 | 8917 ft | 267 kts | 8° |
| 2026-04-22 19:09 | 53.48114 | 10.28370 | 8666 ft | 266 kts | 8° |
| 2026-04-22 19:09 | 53.50558 | 10.28991 | 8161 ft | 264 kts | 8° |
| 2026-04-22 19:10 | 53.52368 | 10.29447 | 7787 ft | 263 kts | 8° |
| 2026-04-22 19:10 | 53.54169 | 10.29898 | 7400 ft | 261 kts | 8° |
| 2026-04-22 19:10 | 53.55965 | 10.30348 | 7023 ft | 260 kts | 8° |
| 2026-04-22 19:10 | 53.57748 | 10.30792 | 6653 ft | 258 kts | 8° |
| 2026-04-22 19:11 | 53.59518 | 10.31237 | 6249 ft | 256 kts | 8° |
| 2026-04-22 19:11 | 53.61279 | 10.31685 | 5821 ft | 255 kts | 7° |
| 2026-04-22 19:11 | 53.63024 | 10.32123 | 5403 ft | 253 kts | 6° |
| 2026-04-22 19:11 | 53.64778 | 10.32141 | 4987 ft | 252 kts | 355° |
| 2026-04-22 19:12 | 53.66496 | 10.31903 | 4571 ft | 251 kts | 354° |
| 2026-04-22 19:12 | 53.68217 | 10.31650 | 4317 ft | 243 kts | 354° |
| 2026-04-22 19:12 | 53.69833 | 10.31422 | 4133 ft | 224 kts | 354° |
| 2026-04-22 19:12 | 53.71371 | 10.31213 | 3766 ft | 221 kts | 354° |
| 2026-04-22 19:13 | 53.72894 | 10.31014 | 3474 ft | 218 kts | 354° |
| 2026-04-22 19:13 | 53.74397 | 10.30746 | 3143 ft | 216 kts | 343° |
| 2026-04-22 19:13 | 53.75625 | 10.29430 | 3006 ft | 212 kts | 308° |
| 2026-04-22 19:13 | 53.76129 | 10.27197 | 3008 ft | 201 kts | 274° |
| 2026-04-22 19:14 | 53.75835 | 10.24972 | 3002 ft | 194 kts | 241° |
| 2026-04-22 19:14 | 53.75026 | 10.23244 | 3022 ft | 183 kts | 233° |
| 2026-04-22 19:14 | 53.74226 | 10.21608 | 3010 ft | 179 kts | 234° |
| 2026-04-22 19:14 | 53.73434 | 10.19991 | 2999 ft | 178 kts | 234° |
| 2026-04-22 19:15 | 53.72911 | 10.18921 | 2915 ft | 179 kts | 234° |
| 2026-04-22 19:15 | 53.71853 | 10.16759 | 2641 ft | 178 kts | 234° |
| 2026-04-22 19:15 | 53.71079 | 10.15180 | 2428 ft | 175 kts | 234° |
| 2026-04-22 19:15 | 53.70291 | 10.13573 | 2177 ft | 176 kts | 234° |
| 2026-04-22 19:16 | 53.69522 | 10.12005 | 1935 ft | 174 kts | 235° |
| 2026-04-22 19:16 | 53.68758 | 10.10452 | 1693 ft | 166 kts | 235° |
| 2026-04-22 19:16 | 53.68054 | 10.09024 | 1466 ft | 151 kts | 236° |
| 2026-04-22 19:16 | 53.67404 | 10.07702 | 1285 ft | 143 kts | 236° |
| 2026-04-22 19:17 | 53.66776 | 10.06424 | 1081 ft | 139 kts | 236° |
| 2026-04-22 19:17 | 53.66161 | 10.05173 | 897 ft | 138 kts | 236° |
| 2026-04-22 19:17 | 53.65558 | 10.03947 | 698 ft | 134 kts | 234° |
| 2026-04-22 19:17 | 53.64961 | 10.02729 | 480 ft | 134 kts | 234° |
| 2026-04-22 19:18 | 53.64366 | 10.01526 | 308 ft | 134 kts | 234° |
| 2026-04-22 19:18 | 53.63770 | 10.00316 | 133 ft | 134 kts | 233° |
| 2026-04-22 19:18 | 53.63197 | 9.99139 | 47 ft | 116 kts | 229° |
| 2026-04-22 19:18 | 53.62796 | 9.98336 | 43 ft | 65 kts | 229° |
| 2026-04-22 19:19 | 53.62564 | 9.97869 | 41 ft | 26 kts | 230° |
| 2026-04-22 19:19 | 53.62434 | 9.97864 | 42 ft | 16 kts | 108° |
| 2026-04-22 19:19 | 53.62435 | 9.97953 | 43 ft | 0 kts | 83° |
| 2026-04-22 19:20 | 53.62435 | 9.97954 | 47 ft | 1 kts | 83° |
| 2026-04-22 19:20 | 53.62440 | 9.98002 | 44 ft | 6 kts | 79° |
| 2026-04-22 19:21 | 53.62453 | 9.98065 | 45 ft | 5 kts | 67° |
| 2026-04-22 19:21 | 53.62497 | 9.98165 | 44 ft | 13 kts | 51° |
| 2026-04-22 19:21 | 53.62551 | 9.98273 | 47 ft | 11 kts | 48° |
| 2026-04-22 19:21 | 53.62605 | 9.98381 | 45 ft | 13 kts | 51° |
| 2026-04-22 19:22 | 53.62659 | 9.98488 | 47 ft | 11 kts | 50° |
| 2026-04-22 19:22 | 53.62706 | 9.98584 | 46 ft | 10 kts | 50° |
| 2026-04-22 19:22 | 53.62757 | 9.98688 | 47 ft | 14 kts | 50° |
| 2026-04-22 19:22 | 53.62817 | 9.98808 | 45 ft | 13 kts | 54° |
| 2026-04-22 19:23 | 53.62869 | 9.98915 | 47 ft | 11 kts | 50° |
| 2026-04-22 19:23 | 53.62924 | 9.99025 | 46 ft | 19 kts | 50° |
| 2026-04-22 19:23 | 53.63020 | 9.99218 | 47 ft | 21 kts | 50° |
| 2026-04-22 19:23 | 53.63085 | 9.99367 | 44 ft | 14 kts | 54° |
| 2026-04-22 19:24 | 53.63148 | 9.99518 | 46 ft | 23 kts | 53° |
| 2026-04-22 19:24 | 53.63223 | 9.99672 | 48 ft | 0 kts | 49° |
| 2026-04-22 19:25 | 53.63228 | 9.99682 | 46 ft | 7 kts | 49° |
| 2026-04-22 19:25 | 53.63285 | 9.99784 | 46 ft | 12 kts | 46° |
| 2026-04-22 19:25 | 53.63340 | 9.99885 | 47 ft | 11 kts | 48° |
| 2026-04-22 19:25 | 53.63385 | 9.99979 | 47 ft | 10 kts | 49° |
| 2026-04-22 19:26 | 53.63425 | 10.00056 | 47 ft | 3 kts | 49° |
| 2026-04-22 19:26 | 53.63436 | 10.00088 | 48 ft | 7 kts | 69° |
| 2026-04-22 19:26 | 53.63407 | 10.00161 | 47 ft | 6 kts | 141° |
| 2026-04-22 19:26 | 53.63371 | 10.00191 | 48 ft | 5 kts | 167° |
| 2026-04-22 19:27 | 53.63309 | 10.00202 | 48 ft | 8 kts | 175° |
| 2026-04-22 19:27 | 53.63288 | 10.00261 | 45 ft | 6 kts | 87° |
| 2026-04-22 19:27 | 53.63291 | 10.00319 | 48 ft | 4 kts | 85° |
| 2026-04-22 19:27 | 53.63292 | 10.00347 | 48 ft | 0 kts | 86° |
| 2026-04-22 19:30 | 53.63292 | 10.00350 | 49 ft | 0 kts | 87° |